createdAt,value
2023-01-07T00:00:00.000Z,77.33
2023-01-07T00:15:00.000Z,77.53
2023-01-07T00:30:00.000Z,77.05
2023-01-07T00:45:00.000Z,76.43
2023-01-07T01:00:00.000Z,75.86
2023-01-07T01:15:00.000Z,75.74
2023-01-07T01:30:00.000Z,76.24
2023-01-07T01:45:00.000Z,77.2
2023-01-07T02:00:00.000Z,77.16
2023-01-07T02:15:00.000Z,76.83
2023-01-07T02:30:00.000Z,77.02
2023-01-07T02:45:00.000Z,76.94
2023-01-07T03:00:00.000Z,76.89
2023-01-07T03:15:00.000Z,76.62
2023-01-07T03:30:00.000Z,76.86
2023-01-07T03:45:00.000Z,77.21
2023-01-07T04:00:00.000Z,77.34
2023-01-07T04:15:00.000Z,77.31
2023-01-07T04:30:00.000Z,77.94
2023-01-07T04:45:00.000Z,78.94
2023-01-07T05:00:00.000Z,79.1
2023-01-07T05:15:00.000Z,78.84
2023-01-07T05:30:00.000Z,79.47
2023-01-07T05:45:00.000Z,80.04
2023-01-07T06:00:00.000Z,80.75
2023-01-07T06:15:00.000Z,81.17
2023-01-07T06:30:00.000Z,81.4
2023-01-07T06:45:00.000Z,81.31
2023-01-07T07:00:00.000Z,81.14
2023-01-07T07:15:00.000Z,81.24
2023-01-07T07:30:00.000Z,81.36
2023-01-07T07:45:00.000Z,79.97
2023-01-07T08:00:00.000Z,81.31
2023-01-07T08:15:00.000Z,78.1
2023-01-07T08:30:00.000Z,76.82
2023-01-07T08:45:00.000Z,75.31
2023-01-07T09:00:00.000Z,74.13
2023-01-07T09:15:00.000Z,73.78
2023-01-07T09:30:00.000Z,72.3
2023-01-07T09:45:00.000Z,65.23
2023-01-07T10:00:00.000Z,59.56
2023-01-07T10:15:00.000Z,57.47
2023-01-07T10:30:00.000Z,55.41
2023-01-07T10:45:00.000Z,55.91
2023-01-07T11:00:00.000Z,56.14
2023-01-07T11:15:00.000Z,56.69
2023-01-07T11:30:00.000Z,57.6
2023-01-07T11:45:00.000Z,56.28
2023-01-07T12:00:00.000Z,54.72
2023-01-07T12:15:00.000Z,56.14
2023-01-07T12:30:00.000Z,55.29
2023-01-07T12:45:00.000Z,54.85
2023-01-07T13:00:00.000Z,57.46
2023-01-07T13:15:00.000Z,59.03
2023-01-07T13:30:00.000Z,59.59
2023-01-07T13:45:00.000Z,60.44
2023-01-07T14:00:00.000Z,60.29
2023-01-07T14:15:00.000Z,60.74
2023-01-07T14:30:00.000Z,60.94
2023-01-07T14:45:00.000Z,62.06
2023-01-07T15:00:00.000Z,63.87
2023-01-07T15:15:00.000Z,64.48
2023-01-07T15:30:00.000Z,64.83
2023-01-07T15:45:00.000Z,66.01
2023-01-07T16:00:00.000Z,66.51
2023-01-07T16:15:00.000Z,67.84
2023-01-07T16:30:00.000Z,69.89
2023-01-07T16:45:00.000Z,71.36
2023-01-07T17:00:00.000Z,72.72
2023-01-07T17:15:00.000Z,74.4
2023-01-07T17:30:00.000Z,75.45
2023-01-07T17:45:00.000Z,76.74
2023-01-07T18:00:00.000Z,77.07
2023-01-07T18:15:00.000Z,77.8
2023-01-07T18:30:00.000Z,79.39
2023-01-07T18:45:00.000Z,79.9
2023-01-07T19:00:00.000Z,80.09
2023-01-07T19:15:00.000Z,80.78
2023-01-07T19:30:00.000Z,81.19
2023-01-07T19:45:00.000Z,81.22
2023-01-07T20:00:00.000Z,81.6
2023-01-07T20:15:00.000Z,82.24
2023-01-07T20:30:00.000Z,82.07
2023-01-07T20:45:00.000Z,82.66
2023-01-07T21:00:00.000Z,82.76
2023-01-07T21:15:00.000Z,82.5
2023-01-07T21:30:00.000Z,82.87
2023-01-07T21:45:00.000Z,82.25
2023-01-07T22:00:00.000Z,81.75
2023-01-07T22:15:00.000Z,81.58
2023-01-07T22:30:00.000Z,80.39
2023-01-07T22:45:00.000Z,78.15
2023-01-07T23:00:00.000Z,76.33
2023-01-07T23:15:00.000Z,76.04
2023-01-07T23:30:00.000Z,75.33
2023-01-07T23:45:00.000Z,75.09
